Time;durP1;ratioP1;P1;durP2;ratioP2;P2;SDS_P1;SDS_P2;PMS_P1;PMS_P2;Temp;Humidity;BMP_temperature;BMP_pressure;BME280_temperature;BME280_humidity;BME280_pressure;Samples;Min_cycle;Max_cycle;Signal;HPM_P1;HPM_P2
2023/07/11 00:02:25;;;;;;;4.37;1.47;;;19.40;99.90;;;;;;5093508;28;20090;-71
2023/07/11 00:04:51;;;;;;;5.70;1.77;;;19.30;99.90;;;;;;5094228;28;20118;-70
2023/07/11 00:07:17;;;;;;;4.33;1.87;;;19.30;99.90;;;;;;5094363;28;20130;-70
2023/07/11 00:09:49;;;;;;;4.53;1.50;;;19.30;99.90;;;;;;5094454;28;20048;-71
2023/07/11 00:12:16;;;;;;;4.83;1.50;;;19.30;99.90;;;;;;5094262;28;20047;-70
2023/07/11 00:14:41;;;;;;;4.03;1.50;;;19.30;99.90;;;;;;5094061;28;20385;-71
2023/07/11 00:17:07;;;;;;;5.23;1.67;;;19.30;99.90;;;;;;5094199;28;20074;-70
2023/07/11 00:19:48;;;;;;;4.90;1.77;;;19.40;99.90;;;;;;5093907;28;20043;-71
2023/07/11 00:22:13;;;;;;;5.63;1.77;;;19.40;99.90;;;;;;5094170;28;20073;-70
2023/07/11 00:24:39;;;;;;;4.30;1.60;;;19.30;99.90;;;;;;5092688;28;20052;-70
2023/07/11 00:27:05;;;;;;;5.77;1.80;;;19.30;99.90;;;;;;5093974;28;20460;-70
2023/07/11 00:29:31;;;;;;;5.50;1.70;;;19.30;99.90;;;;;;5093771;28;20105;-70
2023/07/11 00:31:56;;;;;;;4.67;2.00;;;19.40;99.90;;;;;;5093704;28;20484;-71
2023/07/11 00:34:22;;;;;;;5.70;1.60;;;19.40;99.90;;;;;;5094138;28;20107;-70
2023/07/11 00:36:48;;;;;;;5.27;1.50;;;19.30;99.90;;;;;;5093901;28;20463;-71
2023/07/11 00:39:15;;;;;;;6.93;1.70;;;19.30;99.90;;;;;;5092635;28;20067;-71
2023/07/11 00:41:42;;;;;;;6.03;1.83;;;19.30;99.90;;;;;;5093511;28;20123;-71
2023/07/11 00:44:15;;;;;;;5.00;1.80;;;19.30;99.90;;;;;;5093718;28;20466;-70
2023/07/11 00:46:43;;;;;;;8.53;2.13;;;19.40;99.90;;;;;;5092341;28;20454;-71
2023/07/11 00:49:15;;;;;;;6.47;1.80;;;19.30;99.90;;;;;;5076048;28;20363;-70
2023/07/11 00:52:01;;;;;;;4.90;1.63;;;19.30;99.90;;;;;;5093617;28;20071;-70
2023/07/11 00:54:29;;;;;;;;;;;19.30;99.90;;;;;;5076042;28;20456;-70
2023/07/11 00:56:56;;;;;;;4.80;1.40;;;19.30;99.90;;;;;;5093306;28;19947;-70
2023/07/11 00:59:23;;;;;;;5.47;1.67;;;19.40;99.90;;;;;;5093462;28;20400;-71
2023/07/11 01:02:16;;;;;;;6.37;1.97;;;19.40;99.90;;;;;;5093160;28;20098;-71
2023/07/11 01:04:43;;;;;;;5.97;1.67;;;19.30;99.90;;;;;;5093062;28;20503;-71
2023/07/11 01:07:12;;;;;;;7.50;2.00;;;19.20;99.90;;;;;;5093255;28;20040;-70
2023/07/11 01:09:38;;;;;;;4.93;1.80;;;19.30;99.90;;;;;;5092960;28;20135;-71
2023/07/11 01:12:08;;;;;;;4.23;1.60;;;19.20;99.90;;;;;;5093268;28;20515;-71
2023/07/11 01:14:36;;;;;;;6.03;1.97;;;19.20;99.90;;;;;;5093191;28;20048;-70
2023/07/11 01:17:27;;;;;;;5.67;1.83;;;19.20;99.90;;;;;;5093220;28;20040;-71
2023/07/11 01:19:54;;;;;;;6.77;1.77;;;19.20;99.90;;;;;;5092873;28;20070;-70
2023/07/11 01:22:20;;;;;;;6.37;1.60;;;19.20;99.90;;;;;;5093120;28;20348;-70
2023/07/11 01:24:46;;;;;;;5.40;1.90;;;19.10;99.90;;;;;;5091849;28;20097;-70
2023/07/11 01:27:13;;;;;;;6.20;1.70;;;19.10;99.90;;;;;;5093064;28;20152;-70
2023/07/11 01:29:41;;;;;;;5.13;1.60;;;19.10;99.90;;;;;;5091851;28;20209;-72
2023/07/11 01:32:07;;;;;;;6.40;1.80;;;19.10;99.90;;;;;;5092993;28;20044;-70
2023/07/11 01:34:33;;;;;;;5.63;1.70;;;19.10;99.90;;;;;;5093108;28;20087;-70
2023/07/11 01:36:59;;;;;;;7.57;2.43;;;19.20;99.90;;;;;;5092792;28;21026;-70
2023/07/11 01:39:25;;;;;;;7.03;2.20;;;19.10;99.90;;;;;;5092888;28;20051;-70
2023/07/11 01:41:51;;;;;;;5.30;1.57;;;19.10;99.90;;;;;;5091358;28;20052;-71
2023/07/11 01:44:16;;;;;;;4.20;1.70;;;19.10;99.90;;;;;;5092674;28;20515;-70
2023/07/11 01:46:42;;;;;;;7.07;2.70;;;19.10;99.90;;;;;;5092487;28;20040;-71
2023/07/11 01:49:08;;;;;;;6.37;1.63;;;19.10;99.90;;;;;;5092449;28;20047;-71
2023/07/11 01:51:33;;;;;;;4.80;1.60;;;19.10;99.90;;;;;;5092803;28;20123;-70
2023/07/11 01:53:59;;;;;;;6.27;2.00;;;19.10;99.90;;;;;;5092468;28;20048;-70
2023/07/11 01:56:24;;;;;;;7.33;2.10;;;19.00;99.90;;;;;;5092686;28;20143;-70
2023/07/11 01:58:50;;;;;;;6.33;2.20;;;19.00;99.90;;;;;;5092414;28;20077;-71
2023/07/11 02:01:16;;;;;;;7.10;1.80;;;19.00;99.90;;;;;;5092636;28;20044;-70
2023/07/11 02:03:41;;;;;;;6.00;2.13;;;18.90;99.90;;;;;;5092602;28;20130;-72
2023/07/11 02:06:07;;;;;;;6.50;1.97;;;18.90;99.90;;;;;;5092586;28;20112;-70
2023/07/11 02:08:33;;;;;;;7.00;2.10;;;18.80;99.90;;;;;;5092634;28;20533;-71
2023/07/11 02:10:59;;;;;;;4.77;1.87;;;18.80;99.90;;;;;;5092343;28;20044;-71
2023/07/11 02:13:25;;;;;;;4.73;2.13;;;18.80;99.90;;;;;;5092721;28;20407;-70
2023/07/11 02:15:50;;;;;;;4.13;1.63;;;18.90;99.90;;;;;;5092313;28;20040;-70
2023/07/11 02:18:16;;;;;;;6.43;1.90;;;18.80;99.90;;;;;;5092527;28;20076;-70
2023/07/11 02:20:43;;;;;;;5.10;1.87;;;18.80;99.90;;;;;;5092499;28;20040;-70
2023/07/11 02:23:11;;;;;;;5.70;1.97;;;18.80;99.90;;;;;;5092519;28;20055;-70
2023/07/11 02:25:37;;;;;;;6.07;1.70;;;18.80;99.90;;;;;;5092382;28;20559;-70
2023/07/11 02:28:03;;;;;;;5.73;2.27;;;18.80;99.90;;;;;;5092165;28;20079;-70
2023/07/11 02:30:29;;;;;;;6.80;2.23;;;18.70;99.90;;;;;;5092637;28;20067;-70
2023/07/11 02:32:54;;;;;;;7.00;2.17;;;18.80;99.90;;;;;;5092150;28;20048;-70
2023/07/11 02:35:20;;;;;;;6.13;2.30;;;18.70;99.90;;;;;;5092755;28;20040;-70
2023/07/11 02:37:46;;;;;;;6.13;2.40;;;18.80;99.90;;;;;;5092107;28;20032;-72
2023/07/11 02:40:12;;;;;;;5.17;2.00;;;18.70;99.90;;;;;;5093950;28;20044;-70
2023/07/11 02:42:37;;;;;;;5.60;2.10;;;18.70;99.90;;;;;;5096103;28;20503;-70
2023/07/11 02:45:03;;;;;;;6.83;2.73;;;18.70;99.90;;;;;;5095465;28;20093;-70
2023/07/11 02:47:29;;;;;;;4.63;2.10;;;18.70;99.90;;;;;;5096035;28;20036;-70
2023/07/11 02:49:55;;;;;;;7.40;2.10;;;18.70;99.90;;;;;;5095675;28;20388;-71
2023/07/11 02:52:20;;;;;;;5.27;2.00;;;18.70;99.90;;;;;;5096031;28;20101;-70
2023/07/11 02:54:46;;;;;;;5.77;2.00;;;18.70;99.90;;;;;;5095901;28;20428;-70
2023/07/11 02:57:12;;;;;;;5.83;2.10;;;18.70;99.90;;;;;;5095507;28;20040;-70
2023/07/11 02:59:38;;;;;;;6.57;1.90;;;18.70;99.90;;;;;;5095970;28;20048;-70
2023/07/11 03:02:04;;;;;;;5.37;2.10;;;18.60;99.90;;;;;;5095546;28;20433;-70
2023/07/11 03:04:31;;;;;;;7.47;1.90;;;18.60;99.90;;;;;;5077845;28;20051;-70
2023/07/11 03:06:57;;;;;;;6.23;2.20;;;18.60;99.90;;;;;;5095319;28;20040;-71
2023/07/11 03:09:25;;;;;;;5.00;1.70;;;18.50;99.90;;;;;;5095582;28;20066;-70
2023/07/11 03:11:51;;;;;;;7.47;2.40;;;18.50;99.90;;;;;;5095281;28;20047;-70
2023/07/11 03:14:18;;;;;;;6.00;2.10;;;18.50;99.90;;;;;;5095163;28;20492;-70
2023/07/11 03:16:44;;;;;;;6.10;2.23;;;18.50;99.90;;;;;;5095531;28;20185;-70
2023/07/11 03:19:10;;;;;;;8.07;2.50;;;18.40;99.90;;;;;;5095176;28;20047;-70
2023/07/11 03:21:36;;;;;;;4.73;1.80;;;18.40;99.90;;;;;;5095422;28;20044;-70
2023/07/11 03:24:02;;;;;;;7.10;2.00;;;18.40;99.90;;;;;;5095095;28;20040;-71
2023/07/11 03:26:27;;;;;;;10.00;3.07;;;18.30;99.90;;;;;;5095457;28;20384;-70
2023/07/11 03:28:53;;;;;;;6.00;2.40;;;18.30;99.90;;;;;;5094575;28;20400;-71
2023/07/11 03:31:20;;;;;;;9.90;2.90;;;18.30;99.90;;;;;;5095446;28;20063;-70
2023/07/11 03:33:48;;;;;;;7.60;2.40;;;18.20;99.90;;;;;;5095139;28;20044;-70
2023/07/11 03:36:14;;;;;;;6.30;2.67;;;18.20;99.90;;;;;;5094830;28;20040;-70
2023/07/11 03:38:40;;;;;;;6.90;2.77;;;18.30;99.90;;;;;;5095136;28;20058;-70
2023/07/11 03:41:05;;;;;;;7.40;2.40;;;18.30;99.90;;;;;;5094752;28;20044;-70
2023/07/11 03:43:31;;;;;;;11.20;3.10;;;18.20;99.90;;;;;;5094953;28;20048;-70
2023/07/11 03:45:57;;;;;;;7.83;2.90;;;18.30;99.90;;;;;;5076527;28;20055;-70
2023/07/11 03:48:22;;;;;;;8.10;2.60;;;18.30;99.90;;;;;;5094858;28;20047;-70
2023/07/11 03:50:48;;;;;;;7.97;2.80;;;18.30;99.90;;;;;;5093876;28;20044;-70
2023/07/11 03:53:14;;;;;;;6.50;2.90;;;18.20;99.90;;;;;;5093965;28;20052;-70
2023/07/11 03:55:42;;;;;;;7.07;2.77;;;18.30;99.90;;;;;;5094704;28;20055;-70
2023/07/11 03:58:09;;;;;;;6.40;2.50;;;18.30;99.90;;;;;;5094151;28;20055;-70
2023/07/11 04:00:34;;;;;;;6.97;2.60;;;18.30;99.90;;;;;;5094659;28;20055;-70
2023/07/11 04:03:00;;;;;;;9.20;3.77;;;18.20;99.90;;;;;;5094034;28;20165;-70
2023/07/11 04:05:26;;;;;;;5.63;2.80;;;18.20;99.90;;;;;;5094511;28;20044;-70
2023/07/11 04:07:51;;;;;;;9.50;2.70;;;18.20;99.90;;;;;;5094501;28;20102;-70
2023/07/11 04:10:17;;;;;;;8.73;2.97;;;18.30;99.90;;;;;;5094225;28;20597;-70
2023/07/11 04:12:43;;;;;;;5.50;2.90;;;18.30;99.90;;;;;;5094393;28;20148;-70
2023/07/11 04:15:09;;;;;;;6.33;3.00;;;18.40;99.90;;;;;;5092953;28;20083;-70
2023/07/11 04:17:35;;;;;;;7.27;3.13;;;18.30;99.90;;;;;;5094269;28;20085;-70
2023/07/11 04:20:00;;;;;;;12.37;3.23;;;18.30;99.90;;;;;;5094268;28;20048;-70
2023/07/11 04:22:26;;;;;;;9.97;3.73;;;18.30;99.90;;;;;;5094400;28;20035;-70
2023/07/11 04:24:52;;;;;;;8.80;2.83;;;18.30;99.90;;;;;;5094172;28;20069;-70
2023/07/11 04:27:19;;;;;;;9.57;3.83;;;18.30;99.90;;;;;;5093737;28;20036;-70
2023/07/11 04:29:44;;;;;;;11.87;3.73;;;18.30;99.90;;;;;;5094167;28;20056;-70
2023/07/11 04:32:10;;;;;;;11.80;3.50;;;18.30;99.90;;;;;;5093797;28;20117;-70
2023/07/11 04:34:36;;;;;;;12.27;3.33;;;18.30;99.90;;;;;;5093920;28;20083;-70
2023/07/11 04:37:02;;;;;;;8.77;3.90;;;18.30;99.90;;;;;;5093593;28;20147;-71
2023/07/11 04:39:27;;;;;;;10.63;3.20;;;18.30;99.90;;;;;;5093880;28;20101;-70
2023/07/11 04:41:53;;;;;;;9.43;3.77;;;18.20;99.90;;;;;;5093823;28;20074;-70
2023/07/11 04:44:19;;;;;;;8.07;3.50;;;18.30;99.90;;;;;;5093601;28;20139;-70
2023/07/11 04:46:44;;;;;;;9.77;3.73;;;18.30;99.90;;;;;;5093823;28;20040;-70
2023/07/11 04:49:10;;;;;;;10.50;3.87;;;18.20;99.90;;;;;;5093428;28;20066;-70
2023/07/11 04:51:36;;;;;;;7.13;3.50;;;18.30;99.90;;;;;;5093655;28;20503;-70
2023/07/11 04:54:01;;;;;;;10.80;3.80;;;18.20;99.90;;;;;;5093334;28;20120;-71
2023/07/11 04:56:27;;;;;;;9.93;3.93;;;18.30;99.90;;;;;;5092548;28;20496;-70
2023/07/11 04:58:53;;;;;;;8.13;3.77;;;18.40;99.90;;;;;;5093357;28;20047;-70
2023/07/11 05:01:18;;;;;;;10.47;4.53;;;18.50;99.90;;;;;;5093220;28;20047;-70
2023/07/11 05:03:45;;;;;;;10.43;3.90;;;18.60;99.90;;;;;;5092588;28;20063;-71
2023/07/11 05:06:14;;;;;;;7.30;3.50;;;18.60;99.90;;;;;;5093065;28;20121;-71
2023/07/11 05:08:40;;;;;;;10.60;4.90;;;18.70;99.90;;;;;;5093428;28;20430;-71
2023/07/11 05:11:16;;;;;;;9.50;4.10;;;18.90;99.90;;;;;;5093050;28;20043;-71
2023/07/11 05:13:44;;;;;;;9.97;4.57;;;19.10;99.90;;;;;;5093536;28;20102;-71
2023/07/11 05:16:19;;;;;;;6.57;3.80;;;19.20;99.90;;;;;;5091734;28;20046;-71
2023/07/11 05:18:46;;;;;;;12.23;4.35;;;19.30;99.90;;;;;;5093303;28;20047;-70
2023/07/11 05:21:15;;;;;;;10.97;4.47;;;19.30;99.90;;;;;;5091689;28;20101;-71
2023/07/11 05:23:41;;;;;;;11.07;4.60;;;19.40;99.90;;;;;;5092937;28;20040;-71
2023/07/11 05:26:07;;;;;;;7.37;4.07;;;19.40;99.90;;;;;;5091211;28;20123;-71
2023/07/11 05:28:33;;;;;;;10.10;4.27;;;19.50;99.90;;;;;;5092862;28;20047;-70
2023/07/11 05:31:04;;;;;;;8.87;4.13;;;19.50;99.90;;;;;;5093216;28;20052;-70
2023/07/11 05:33:30;;;;;;;10.73;4.40;;;19.60;99.90;;;;;;5092968;28;20127;-70
2023/07/11 05:36:32;;;;;;;10.07;4.00;;;19.70;99.90;;;;;;5092986;28;20450;-70
2023/07/11 05:39:10;;;;;;;9.77;4.27;;;19.80;99.90;;;;;;5092725;28;20555;-70
2023/07/11 05:41:38;;;;;;;9.90;3.97;;;19.90;99.90;;;;;;5093044;28;20043;-70
2023/07/11 05:44:04;;;;;;;7.70;3.90;;;20.10;99.90;;;;;;5091566;28;20391;-70
2023/07/11 05:46:30;;;;;;;10.03;4.47;;;20.20;99.90;;;;;;5091417;28;20040;-70
2023/07/11 05:48:57;;;;;;;9.90;4.33;;;20.20;99.90;;;;;;5092845;28;20044;-70
2023/07/11 05:51:23;;;;;;;8.63;4.00;;;20.40;99.90;;;;;;5092493;28;20051;-70
2023/07/11 05:53:50;;;;;;;9.40;4.07;;;20.50;99.90;;;;;;5092860;28;20052;-70
2023/07/11 05:56:17;;;;;;;12.10;4.63;;;20.90;99.90;;;;;;5092524;28;20472;-71
2023/07/11 05:58:43;;;;;;;8.13;4.40;;;21.40;99.90;;;;;;5092775;28;20052;-71
2023/07/11 06:01:16;;;;;;;10.43;4.70;;;22.00;99.90;;;;;;5092447;28;20048;-71
2023/07/11 06:03:45;;;;;;;12.23;4.83;;;22.70;99.90;;;;;;5092872;28;20073;-70
2023/07/11 06:06:11;;;;;;;10.07;4.00;;;23.30;99.90;;;;;;5090831;28;20075;-71
2023/07/11 06:08:37;;;;;;;7.73;4.13;;;23.80;99.90;;;;;;5091427;28;20169;-71
2023/07/11 06:11:04;;;;;;;9.47;3.93;;;24.70;99.90;;;;;;5091649;28;20547;-71
2023/07/11 06:13:32;;;;;;;8.53;4.43;;;25.60;99.90;;;;;;5091182;28;20044;-71
2023/07/11 06:15:59;;;;;;;9.93;4.10;;;26.20;99.90;;;;;;5095504;28;20048;-71
2023/07/11 06:18:25;;;;;;;9.33;3.90;;;26.90;99.90;;;;;;5096295;28;20479;-71
2023/07/11 06:20:51;;;;;;;9.87;3.90;;;27.90;97.40;;;;;;5096540;28;20048;-71
2023/07/11 06:23:18;;;;;;;10.27;3.80;;;28.50;92.70;;;;;;5096324;28;20225;-71
2023/07/11 06:25:44;;;;;;;9.90;3.87;;;29.10;85.40;;;;;;5095174;28;20059;-71
2023/07/11 06:28:09;;;;;;;7.47;3.67;;;29.60;80.00;;;;;;5096445;28;20044;-71
2023/07/11 06:30:35;;;;;;;9.07;4.10;;;29.70;74.30;;;;;;5096487;28;20426;-71
2023/07/11 06:33:01;;;;;;;8.97;4.40;;;29.70;68.00;;;;;;5095362;28;20048;-71
2023/07/11 06:35:26;;;;;;;8.47;4.43;;;29.70;66.70;;;;;;5095949;28;20087;-71
2023/07/11 06:37:52;;;;;;;8.80;3.60;;;29.20;65.70;;;;;;5096375;28;20043;-71
2023/07/11 06:40:18;;;;;;;9.47;4.37;;;28.60;66.80;;;;;;5096000;28;20069;-71
2023/07/11 06:42:44;;;;;;;6.90;4.03;;;27.90;68.50;;;;;;5096079;28;20040;-71
2023/07/11 06:45:09;;;;;;;8.33;4.50;;;27.40;71.90;;;;;;5096061;28;20058;-71
2023/07/11 06:47:35;;;;;;;8.23;3.93;;;27.10;75.10;;;;;;5094504;28;20047;-71
2023/07/11 06:50:01;;;;;;;8.00;3.80;;;27.00;79.50;;;;;;5095702;28;20142;-71
2023/07/11 06:52:27;;;;;;;8.33;3.20;;;27.10;81.80;;;;;;5094499;28;20123;-71
2023/07/11 06:54:52;;;;;;;9.90;4.00;;;27.20;82.70;;;;;;5096210;28;20059;-71
2023/07/11 06:57:18;;;;;;;8.57;3.80;;;27.20;80.50;;;;;;5095661;28;20476;-71
2023/07/11 06:59:46;;;;;;;9.93;4.00;;;27.00;80.30;;;;;;5095790;28;20054;-71
2023/07/11 07:02:12;;;;;;;7.87;3.87;;;26.80;81.20;;;;;;5095940;28;20052;-71
2023/07/11 07:04:37;;;;;;;8.73;4.10;;;26.70;82.80;;;;;;5095503;28;20342;-71
2023/07/11 07:07:03;;;;;;;9.87;3.63;;;26.40;83.70;;;;;;5095625;28;20110;-71
2023/07/11 07:09:29;;;;;;;9.37;3.70;;;26.10;86.40;;;;;;5095467;28;20052;-71
2023/07/11 07:11:55;;;;;;;6.60;3.27;;;25.70;90.20;;;;;;5095651;28;20077;-71
2023/07/11 07:14:22;;;;;;;10.83;3.73;;;25.40;92.00;;;;;;5094150;28;20413;-71
2023/07/11 07:16:47;;;;;;;9.00;3.80;;;25.10;93.80;;;;;;5095441;28;20468;-71
2023/07/11 07:19:13;;;;;;;8.37;3.60;;;24.90;95.40;;;;;;5095468;28;20078;-71
2023/07/11 07:21:39;;;;;;;7.63;4.27;;;24.70;96.10;;;;;;5094905;28;20470;-71
2023/07/11 07:24:07;;;;;;;11.20;4.33;;;24.60;96.60;;;;;;5095410;28;20048;-71
2023/07/11 07:26:32;;;;;;;7.23;4.27;;;24.40;97.40;;;;;;5093942;28;20073;-71
2023/07/11 07:28:58;;;;;;;7.03;3.50;;;24.30;97.90;;;;;;5094942;28;20056;-74
2023/07/11 07:31:25;;;;;;;9.60;3.87;;;24.30;98.40;;;;;;5094892;28;20129;-72
2023/07/11 07:33:51;;;;;;;9.80;4.00;;;24.30;99.00;;;;;;5095162;28;20055;-72
2023/07/11 07:36:17;;;;;;;6.93;3.93;;;24.50;99.10;;;;;;5095150;28;20044;-71
2023/07/11 07:38:42;;;;;;;8.07;3.50;;;24.50;98.90;;;;;;5095283;28;20052;-71
2023/07/11 07:41:10;;;;;;;10.43;4.40;;;24.60;99.20;;;;;;5095045;28;20131;-69
2023/07/11 07:43:39;;;;;;;7.20;3.23;;;24.80;99.40;;;;;;5094722;28;20044;-70
2023/07/11 07:46:05;;;;;;;8.03;3.60;;;25.00;99.20;;;;;;5094859;28;20048;-71
2023/07/11 07:48:31;;;;;;;8.03;3.63;;;25.70;99.20;;;;;;5093766;28;20040;-67
2023/07/11 07:51:05;;;;;;;8.63;4.27;;;26.70;97.00;;;;;;5094858;28;20048;-71
2023/07/11 07:53:31;;;;;;;8.48;4.00;;;27.60;91.40;;;;;;5094647;28;20127;-71
2023/07/11 07:56:28;;;;;;;9.13;3.97;;;28.10;90.60;;;;;;5094752;28;20149;-69
2023/07/11 07:58:54;;;;;;;6.63;3.20;;;28.90;76.20;;;;;;5081407;28;20070;-71
2023/07/11 08:01:20;;;;;;;9.60;3.43;;;29.60;76.90;;;;;;5094823;28;20048;-71
2023/07/11 08:03:46;;;;;;;7.65;2.90;;;30.20;68.70;;;;;;5094844;28;20515;-72
2023/07/11 08:06:14;;;;;;;8.25;3.10;;;30.40;63.80;;;;;;5094225;28;20512;-72
2023/07/11 08:08:40;;;;;;;7.40;3.33;;;30.10;61.70;;;;;;5076180;28;20040;-71
2023/07/11 08:11:07;;;;;;;9.40;3.13;;;29.80;61.30;;;;;;5094481;28;20051;-71
2023/07/11 08:13:34;;;;;;;9.25;3.47;;;30.00;60.80;;;;;;5092882;28;20144;-71
2023/07/11 08:16:00;;;;;;;5.88;2.78;;;30.50;60.10;;;;;;5094376;28;20048;-72
2023/07/11 08:18:26;;;;;;;10.05;3.92;;;31.00;58.30;;;;;;5093751;28;20552;-72
2023/07/11 08:20:52;;;;;;;7.80;3.25;;;31.00;56.60;;;;;;5094248;28;20040;-72
2023/07/11 08:23:17;;;;;;;9.82;3.35;;;30.90;55.40;;;;;;5094245;28;20067;-71
2023/07/11 08:25:43;;;;;;;6.32;3.08;;;30.60;56.10;;;;;;5093851;28;20574;-71
2023/07/11 08:28:09;;;;;;;8.75;2.58;;;30.10;56.40;;;;;;5094078;28;20040;-71
2023/07/11 08:30:41;;;;;;;9.38;3.28;;;29.80;57.20;;;;;;5092161;28;20067;-72
2023/07/11 08:33:06;;;;;;;9.63;3.58;;;30.00;57.00;;;;;;5094217;28;20063;-72
2023/07/11 08:35:32;;;;;;;6.18;2.65;;;30.90;57.10;;;;;;5093678;28;20044;-71
2023/07/11 08:37:58;;;;;;;5.78;2.67;;;31.90;55.70;;;;;;5093865;28;20039;-71
2023/07/11 08:40:30;;;;;;;7.53;3.00;;;32.70;54.10;;;;;;5094007;28;20131;-71
2023/07/11 08:43:00;;;;;;;9.75;2.97;;;33.40;51.30;;;;;;5094218;28;20376;-71
2023/07/11 08:45:29;;;;;;;8.40;2.85;;;33.80;50.80;;;;;;5093917;28;20109;-72
2023/07/11 08:47:59;;;;;;;8.73;3.80;;;34.00;49.70;;;;;;5093707;28;20040;-71
2023/07/11 08:50:36;;;;;;;8.13;2.97;;;33.90;48.90;;;;;;5093780;28;20492;-73
2023/07/11 08:53:11;;;;;;;7.18;2.92;;;33.50;48.40;;;;;;5093028;28;20048;-71
2023/07/11 08:55:41;;;;;;;8.07;3.38;;;33.00;48.90;;;;;;5093382;28;20109;-72
2023/07/11 08:58:21;;;;;;;8.45;3.03;;;32.50;49.60;;;;;;5093573;28;20093;-72
2023/07/11 09:00:49;;;;;;;7.43;3.00;;;31.40;49.70;;;;;;5093024;28;20862;-72
2023/07/11 09:03:24;;;;;;;9.48;3.33;;;31.10;50.10;;;;;;5093489;28;20051;-71
2023/07/11 09:06:03;;;;;;;6.82;2.72;;;30.90;50.20;;;;;;5093263;28;20126;-72
2023/07/11 09:08:30;;;;;;;9.00;3.45;;;30.80;50.90;;;;;;5093349;28;20044;-71
2023/07/11 09:11:11;;;;;;;7.40;2.95;;;30.60;50.80;;;;;;5093450;28;20047;-70
2023/07/11 09:14:02;;;;;;;6.22;3.30;;;30.40;51.40;;;;;;5093140;28;20052;-70
2023/07/11 09:16:53;;;;;;;9.07;3.20;;;30.20;52.40;;;;;;5093478;28;20036;-71
2023/07/11 09:19:45;;;;;;;11.32;3.08;;;29.90;52.00;;;;;;5091188;28;20105;-72
2023/07/11 09:22:20;;;;;;;7.97;3.47;;;29.80;53.40;;;;;;5093288;28;20086;-70
2023/07/11 09:24:49;;;;;;;7.38;2.95;;;29.70;53.50;;;;;;5091778;28;20083;-70
2023/07/11 09:27:14;;;;;;;6.78;2.80;;;29.70;53.50;;;;;;5092073;28;20048;-72
2023/07/11 09:29:45;;;;;;;8.00;2.80;;;29.60;53.60;;;;;;5092783;28;20074;-71
2023/07/11 09:32:13;;;;;;;6.38;2.90;;;29.40;54.20;;;;;;5093227;28;20108;-70
2023/07/11 09:34:43;;;;;;;6.97;2.75;;;29.30;54.90;;;;;;5075060;28;20056;-67
2023/07/11 09:37:34;;;;;;;6.95;3.10;;;29.30;55.30;;;;;;5093323;28;20072;-67
2023/07/11 09:40:14;;;;;;;8.25;3.00;;;29.20;55.40;;;;;;5093093;28;20048;-67
2023/07/11 09:42:51;;;;;;;6.50;2.75;;;29.20;55.50;;;;;;5092675;28;20541;-68
2023/07/11 09:45:19;;;;;;;8.50;3.10;;;29.10;55.70;;;;;;5093080;28;20096;-70
2023/07/11 09:47:52;;;;;;;6.78;2.65;;;29.00;55.00;;;;;;5092590;28;20060;-69
2023/07/11 09:50:21;;;;;;;6.47;2.42;;;29.00;54.70;;;;;;5092789;28;20051;-69
2023/07/11 09:52:47;;;;;;;7.18;2.80;;;28.80;54.80;;;;;;5091230;28;20091;-71
2023/07/11 09:55:24;;;;;;;11.43;3.10;;;28.80;55.40;;;;;;5090197;28;20051;-71
2023/07/11 09:57:51;;;;;;;10.43;2.95;;;28.70;55.20;;;;;;5091928;28;20491;-70
2023/07/11 10:00:17;;;;;;;5.53;2.40;;;28.60;55.30;;;;;;5092526;28;20132;-70
2023/07/11 10:02:47;;;;;;;4.53;2.30;;;28.60;55.60;;;;;;5092418;28;20134;-70
2023/07/11 10:05:17;;;;;;;6.85;2.72;;;28.40;55.90;;;;;;5093105;28;20135;-70
2023/07/11 10:07:43;;;;;;;7.35;2.50;;;28.40;57.00;;;;;;5092376;28;20130;-71
2023/07/11 10:10:14;;;;;;;6.07;2.67;;;28.30;57.20;;;;;;5092876;28;20040;-71
2023/07/11 10:12:43;;;;;;;5.65;2.35;;;28.40;57.50;;;;;;5092471;28;20059;-71
2023/07/11 10:15:17;;;;;;;9.40;2.75;;;28.40;56.60;;;;;;5092595;28;20048;-70
2023/07/11 10:17:44;;;;;;;6.60;2.70;;;28.40;57.10;;;;;;5092349;28;20043;-71
2023/07/11 10:20:16;;;;;;;11.43;2.47;;;28.30;57.20;;;;;;5092796;28;20395;-70
2023/07/11 10:22:44;;;;;;;7.10;2.53;;;28.30;57.40;;;;;;5092342;28;20055;-70
2023/07/11 10:25:22;;;;;;;7.07;3.17;;;28.40;57.90;;;;;;5092528;28;20087;-70
2023/07/11 10:28:32;;;;;;;8.85;2.85;;;28.40;58.50;;;;;;5092125;28;20036;-70
2023/07/11 10:31:00;;;;;;;7.75;2.55;;;28.30;58.20;;;;;;5049604;28;20059;-70
2023/07/11 10:33:33;;;;;;;6.18;2.50;;;28.30;58.10;;;;;;5049771;28;20041;-70
2023/07/11 10:36:19;;;;;;;8.90;2.53;;;28.30;58.70;;;;;;5073843;28;20056;-70
2023/07/11 10:38:58;;;;;;;8.05;2.88;;;28.30;59.30;;;;;;5092296;28;20127;-70
2023/07/11 10:41:33;;;;;;;6.75;2.50;;;28.30;59.60;;;;;;5092400;28;20075;-70
2023/07/11 10:44:04;;;;;;;9.50;2.85;;;28.30;59.90;;;;;;5092117;28;20051;-70
2023/07/11 10:46:42;;;;;;;7.95;2.90;;;28.20;59.70;;;;;;5092428;28;20091;-70
2023/07/11 10:49:45;;;;;;;10.45;3.05;;;28.10;61.00;;;;;;5092450;28;20088;-70
2023/07/11 10:52:25;;;;;;;7.72;2.70;;;28.20;61.00;;;;;;5092205;28;20471;-70
2023/07/11 10:54:54;;;;;;;7.22;2.67;;;28.10;60.30;;;;;;5091927;28;20098;-70
2023/07/11 10:57:29;;;;;;;7.57;3.13;;;28.10;60.90;;;;;;5091278;28;20052;-70
2023/07/11 10:59:55;;;;;;;8.73;3.53;;;28.00;61.10;;;;;;5092156;28;20048;-70
2023/07/11 11:02:41;;;;;;;8.85;3.08;;;27.90;60.70;;;;;;5093375;28;20043;-70
2023/07/11 11:06:03;;;;;;;6.05;2.80;;;27.90;61.10;;;;;;5096007;28;20049;-70
2023/07/11 11:08:40;;;;;;;8.07;3.20;;;27.90;62.60;;;;;;5033161;28;20064;-69
2023/07/11 11:11:25;;;;;;;7.78;3.33;;;27.90;62.40;;;;;;5087224;28;20055;-69
2023/07/11 11:14:02;;;;;;;10.48;3.28;;;27.90;63.50;;;;;;5095331;28;20126;-71
2023/07/11 11:17:00;;;;;;;9.38;3.05;;;27.90;65.40;;;;;;5095649;28;20056;-71
2023/07/11 11:19:32;;;;;;;9.30;4.22;;;28.00;67.40;;;;;;5086213;28;20587;-71
2023/07/11 11:22:10;;;;;;;10.88;3.75;;;28.00;67.50;;;;;;5094945;28;20408;-71
2023/07/11 11:25:04;;;;;;;9.40;3.97;;;28.00;67.00;;;;;;5095524;28;20121;-71
2023/07/11 11:27:45;;;;;;;10.32;3.55;;;28.10;68.60;;;;;;5091116;28;20056;-71
2023/07/11 11:30:34;;;;;;;11.18;3.38;;;28.10;69.90;;;;;;5095373;28;20066;-71
2023/07/11 11:33:14;;;;;;;10.43;3.17;;;28.10;65.60;;;;;;5094820;28;20055;-70
2023/07/11 11:36:10;;;;;;;7.72;2.83;;;28.10;66.10;;;;;;5095214;28;20563;-71
2023/07/11 11:38:58;;;;;;;8.33;3.20;;;27.90;66.30;;;;;;5093973;28;20494;-71
2023/07/11 11:41:56;;;;;;;14.70;3.30;;;28.00;66.20;;;;;;5095180;28;20040;-71
2023/07/11 11:44:37;;;;;;;9.60;3.50;;;27.90;67.40;;;;;;5086559;28;20070;-71
2023/07/11 11:47:03;;;;;;;8.87;3.60;;;27.90;67.60;;;;;;5094676;28;20051;-70
2023/07/11 11:49:29;;;;;;;10.40;3.63;;;28.00;67.80;;;;;;5085732;28;20058;-71
2023/07/11 11:51:56;;;;;;;11.50;3.55;;;28.00;67.40;;;;;;5093618;28;20141;-72
2023/07/11 11:54:25;;;;;;;8.40;3.20;;;28.00;68.00;;;;;;5072931;28;20048;-70
2023/07/11 11:56:58;;;;;;;6.63;3.17;;;28.00;67.00;;;;;;5089653;28;20468;-71
2023/07/11 11:59:27;;;;;;;7.55;2.70;;;27.90;66.50;;;;;;5088686;28;20052;-73
2023/07/11 12:01:55;;;;;;;8.57;3.38;;;27.90;68.10;;;;;;5093633;28;20542;-71
2023/07/11 12:04:27;;;;;;;8.17;2.87;;;27.90;68.00;;;;;;5089811;28;20048;-70
2023/07/11 12:07:02;;;;;;;6.60;3.13;;;27.90;67.50;;;;;;5089532;28;20066;-71
2023/07/11 12:09:34;;;;;;;6.67;2.70;;;27.90;67.40;;;;;;5091796;28;20131;-71
2023/07/11 12:12:14;;;;;;;7.83;3.20;;;27.80;67.70;;;;;;5089650;28;20056;-71
2023/07/11 12:14:50;;;;;;;9.87;3.33;;;27.90;67.40;;;;;;5089830;28;20059;-71
2023/07/11 12:17:34;;;;;;;7.07;2.57;;;27.90;66.30;;;;;;5089519;28;20066;-71
2023/07/11 12:19:59;;;;;;;5.93;2.42;;;28.00;65.40;;;;;;5090202;28;20545;-70
2023/07/11 12:22:26;;;;;;;4.78;2.20;;;28.00;63.30;;;;;;5093820;28;20051;-70
2023/07/11 12:25:22;;;;;;;9.90;2.77;;;28.00;61.00;;;;;;5093640;28;20059;-70
2023/07/11 12:27:53;;;;;;;9.37;3.10;;;27.90;61.40;;;;;;5090119;28;20083;-71
2023/07/11 12:30:41;;;;;;;9.33;3.00;;;27.90;61.60;;;;;;5091575;28;20056;-69
2023/07/11 12:33:33;;;;;;;10.50;3.03;;;27.90;61.50;;;;;;5093359;28;20231;-70
2023/07/11 12:36:26;;;;;;;6.90;2.57;;;27.90;61.10;;;;;;5093046;28;20044;-69
2023/07/11 12:39:14;;;;;;;6.27;2.50;;;27.80;61.00;;;;;;5092950;28;20189;-70
2023/07/11 12:41:53;;;;;;;6.47;2.50;;;27.80;62.20;;;;;;5093665;28;20055;-70
2023/07/11 12:44:19;;;;;;;6.90;2.90;;;27.80;62.10;;;;;;5093381;28;20085;-70
2023/07/11 12:46:48;;;;;;;5.50;2.33;;;27.80;62.70;;;;;;5093204;28;20177;-69
2023/07/11 12:49:25;;;;;;;9.13;2.43;;;27.80;63.00;;;;;;5090340;28;20044;-70
2023/07/11 12:51:52;;;;;;;8.77;2.80;;;27.80;62.40;;;;;;5093144;28;20044;-72
2023/07/11 12:54:24;;;;;;;6.83;2.40;;;27.80;62.30;;;;;;5093214;28;20044;-69
2023/07/11 12:56:51;;;;;;;6.78;2.90;;;27.80;62.40;;;;;;5093017;28;20488;-70
2023/07/11 12:59:28;;;;;;;8.70;2.07;;;27.80;62.10;;;;;;5090737;28;20051;-70
2023/07/11 13:02:01;;;;;;;6.90;2.77;;;27.90;63.20;;;;;;5092913;28;20047;-70